createdAt,value
2022-09-20T00:01:32.303Z,1.77
2022-09-20T00:04:01.768Z,2.75
2022-09-20T00:06:31.257Z,2.55
2022-09-20T00:09:01.154Z,2.38
2022-09-20T00:11:31.712Z,2.20
2022-09-20T00:14:01.177Z,2.50
2022-09-20T00:16:32.107Z,1.98
2022-09-20T00:19:01.340Z,2.92
2022-09-20T00:21:30.497Z,2.85
2022-09-20T00:23:58.571Z,2.88
2022-09-20T00:26:27.942Z,2.72
2022-09-20T00:28:57.886Z,2.45
2022-09-20T00:31:26.034Z,1.63
2022-09-20T00:34:14.843Z,3.75
2022-09-20T00:36:42.635Z,2.03
2022-09-20T00:39:12.808Z,2.13
2022-09-20T00:41:40.299Z,2.15
2022-09-20T00:44:45.334Z,2.38
2022-09-20T00:47:19.472Z,2.38
2022-09-20T00:49:47.721Z,1.75
2022-09-20T00:52:15.767Z,2.17
2022-09-20T00:54:43.147Z,2.05
2022-09-20T00:57:10.800Z,1.75
2022-09-20T00:59:41.887Z,1.70
2022-09-20T01:02:18.035Z,2.08
2022-09-20T01:04:47.729Z,2.37
2022-09-20T01:07:19.032Z,2.88
2022-09-20T01:09:46.440Z,2.28
2022-09-20T01:12:23.395Z,2.33
2022-09-20T01:14:52.390Z,1.73
2022-09-20T01:17:22.786Z,2.35
2022-09-20T01:20:14.572Z,2.20
2022-09-20T01:23:07.258Z,3.20
2022-09-20T01:26:01.987Z,1.73
2022-09-20T01:28:30.208Z,1.77
2022-09-20T01:31:15.411Z,3.78
2022-09-20T01:34:08.130Z,1.98
2022-09-20T01:37:03.000Z,1.60
2022-09-20T01:39:55.449Z,3.40
2022-09-20T01:42:32.143Z,1.60
2022-09-20T01:45:17.592Z,2.38
2022-09-20T01:48:09.019Z,1.92
2022-09-20T01:51:03.980Z,1.90
2022-09-20T01:53:37.068Z,6.90
2022-09-20T01:56:47.118Z,1.92
2022-09-20T01:59:47.117Z,1.58
2022-09-20T02:02:56.459Z,1.92
2022-09-20T02:05:28.088Z,2.20
2022-09-20T02:08:25.914Z,2.13
2022-09-20T02:11:14.246Z,2.03
2022-09-20T02:13:51.408Z,1.85
2022-09-20T02:16:50.903Z,4.45
2022-09-20T02:19:33.595Z,2.20
2022-09-20T02:22:20.899Z,2.05
2022-09-20T02:25:10.075Z,2.25
2022-09-20T02:27:40.456Z,1.70
2022-09-20T02:30:14.922Z,3.90
2022-09-20T02:32:51.285Z,1.23
2022-09-20T02:35:51.483Z,1.65
2022-09-20T02:38:50.080Z,3.67
2022-09-20T02:41:35.556Z,3.13
2022-09-20T02:44:20.965Z,3.25
2022-09-20T02:47:02.174Z,1.85
2022-09-20T02:50:07.184Z,1.60
2022-09-20T02:53:12.442Z,2.13
2022-09-20T02:55:58.032Z,2.22
2022-09-20T02:58:44.538Z,3.40
2022-09-20T03:01:52.820Z,1.75
2022-09-20T03:05:04.687Z,4.85
2022-09-20T03:07:40.731Z,2.15
2022-09-20T03:10:16.907Z,1.58
2022-09-20T03:13:03.055Z,2.58
2022-09-20T03:15:54.671Z,2.75
2022-09-20T03:18:38.673Z,1.75
2022-09-20T03:21:22.639Z,1.85
2022-09-20T03:24:11.739Z,1.45
2022-09-20T03:26:58.094Z,1.50
2022-09-20T03:30:00.625Z,3.50
2022-09-20T03:32:46.858Z,1.38
2022-09-20T03:35:41.158Z,2.38
2022-09-20T03:38:35.136Z,2.53
2022-09-20T03:41:17.252Z,1.95
2022-09-20T03:43:56.935Z,4.65
2022-09-20T03:46:30.051Z,2.35
2022-09-20T03:49:25.984Z,2.10
2022-09-20T03:52:35.458Z,2.37
2022-09-20T03:55:23.995Z,1.38
2022-09-20T03:58:30.395Z,1.87
2022-09-20T04:01:17.213Z,1.58
2022-09-20T04:04:11.797Z,2.23
2022-09-20T04:06:54.383Z,4.72
2022-09-20T04:09:47.607Z,3.28
2022-09-20T04:12:28.526Z,2.13
2022-09-20T04:15:23.144Z,1.50
2022-09-20T04:18:21.160Z,2.10
2022-09-20T04:21:11.472Z,2.00
2022-09-20T04:23:50.610Z,2.20
2022-09-20T04:26:26.124Z,1.75
2022-09-20T04:29:34.089Z,2.63
2022-09-20T04:32:25.824Z,2.22
2022-09-20T04:35:21.095Z,2.90
2022-09-20T04:37:49.457Z,2.08
2022-09-20T04:40:47.501Z,3.67
2022-09-20T04:43:53.616Z,1.83
2022-09-20T04:46:36.362Z,1.40
2022-09-20T04:49:24.747Z,2.87
2022-09-20T04:52:28.880Z,2.45
2022-09-20T04:55:31.831Z,1.73
2022-09-20T04:58:11.817Z,5.78
2022-09-20T05:01:16.338Z,2.33
2022-09-20T05:04:16.264Z,3.90
2022-09-20T05:07:23.766Z,4.13
2022-09-20T05:09:51.322Z,1.98
2022-09-20T05:12:31.040Z,2.78
2022-09-20T05:15:17.275Z,4.45
2022-09-20T05:18:06.307Z,3.97
2022-09-20T05:20:59.710Z,3.35
2022-09-20T05:23:52.551Z,3.00
2022-09-20T05:26:32.041Z,2.17
2022-09-20T05:29:21.694Z,3.05
2022-09-20T05:32:23.999Z,2.70
2022-09-20T05:34:57.158Z,2.47
2022-09-20T05:37:44.029Z,2.72
2022-09-20T05:40:34.551Z,2.95
2022-09-20T05:43:37.860Z,5.18
2022-09-20T05:46:14.682Z,3.08
2022-09-20T05:49:05.543Z,3.40
2022-09-20T05:52:06.239Z,3.28
2022-09-20T05:54:54.680Z,3.03
2022-09-20T05:58:01.275Z,3.33
2022-09-20T06:00:40.715Z,3.40
2022-09-20T06:03:34.884Z,2.45
2022-09-20T06:06:37.943Z,1.75
2022-09-20T06:09:25.630Z,3.05
2022-09-20T06:12:16.146Z,2.23
2022-09-20T06:15:11.310Z,2.33
2022-09-20T06:17:49.486Z,5.32
2022-09-20T06:20:46.091Z,2.50
2022-09-20T06:23:14.495Z,3.80
2022-09-20T06:25:48.240Z,4.65
2022-09-20T06:28:19.140Z,1.85
2022-09-20T06:30:48.633Z,2.30
2022-09-20T06:33:28.368Z,4.18
2022-09-20T06:36:46.942Z,3.80
2022-09-20T06:39:47.164Z,4.25
2022-09-20T06:42:14.857Z,3.17
2022-09-20T06:44:43.276Z,3.15
2022-09-20T06:47:12.207Z,4.85
2022-09-20T06:49:42.253Z,9.70
2022-09-20T06:52:15.468Z,3.42
2022-09-20T06:54:45.737Z,5.03
2022-09-20T06:57:16.695Z,3.83
2022-09-20T06:59:45.045Z,4.55
2022-09-20T07:02:12.459Z,2.08
2022-09-20T07:04:40.105Z,5.82
2022-09-20T07:07:09.606Z,4.07
2022-09-20T07:09:37.242Z,1.90
2022-09-20T07:12:04.566Z,2.67
2022-09-20T07:14:32.030Z,3.03
2022-09-20T07:16:59.344Z,6.95
2022-09-20T07:19:26.760Z,2.42
2022-09-20T07:21:54.309Z,2.22
2022-09-20T07:24:21.707Z,11.77
2022-09-20T07:26:58.898Z,4.05
2022-09-20T07:29:27.160Z,2.90
2022-09-20T07:31:55.864Z,2.25
2022-09-20T07:34:23.985Z,3.47
2022-09-20T07:36:52.190Z,2.72
2022-09-20T07:39:19.999Z,2.22
2022-09-20T07:41:50.548Z,3.05
2022-09-20T07:44:22.119Z,3.45
2022-09-20T07:47:00.300Z,3.75
2022-09-20T07:49:31.922Z,2.75
2022-09-20T07:51:59.219Z,3.30
2022-09-20T07:54:27.626Z,2.00
2022-09-20T07:56:55.086Z,1.65
2022-09-20T07:59:22.550Z,6.65
2022-09-20T08:01:50.004Z,4.95
2022-09-20T08:04:17.676Z,3.13
2022-09-20T08:06:46.517Z,6.07
2022-09-20T08:09:14.335Z,9.77
2022-09-20T08:11:43.543Z,4.72
2022-09-20T08:14:15.775Z,8.75
2022-09-20T08:16:48.567Z,1.45
2022-09-20T08:19:21.608Z,3.95
2022-09-20T08:21:51.106Z,3.92
2022-09-20T08:24:18.931Z,2.72
2022-09-20T08:26:48.310Z,2.55
2022-09-20T08:29:16.034Z,4.70
2022-09-20T08:31:43.899Z,4.25
2022-09-20T08:34:13.863Z,6.07
2022-09-20T08:36:46.268Z,4.15
2022-09-20T08:42:36.648Z,3.25
2022-09-20T08:45:34.379Z,2.90
2022-09-20T08:48:05.978Z,3.70
2022-09-20T08:50:36.748Z,4.03
2022-09-20T08:53:04.935Z,4.03
2022-09-20T08:55:40.196Z,1.55
2022-09-20T08:58:14.120Z,3.17
2022-09-20T09:00:45.680Z,4.18
2022-09-20T09:03:16.814Z,14.65
2022-09-20T09:05:45.308Z,1.95
2022-09-20T09:08:16.913Z,3.53
2022-09-20T09:10:54.160Z,7.72
2022-09-20T09:14:01.483Z,3.38
2022-09-20T09:16:35.336Z,4.65
2022-09-20T09:19:34.274Z,19.40
2022-09-20T09:22:05.981Z,2.03
2022-09-20T09:24:33.786Z,3.83
2022-09-20T09:27:19.429Z,3.30
2022-09-20T09:29:56.759Z,2.50
2022-09-20T09:32:31.085Z,4.43
2022-09-20T09:35:31.827Z,3.42
2022-09-20T09:38:01.879Z,4.15
2022-09-20T09:40:32.196Z,4.78
2022-09-20T09:43:02.849Z,2.08
2022-09-20T09:45:36.186Z,2.25
2022-09-20T09:48:23.138Z,2.03
2022-09-20T09:50:51.028Z,2.65
2022-09-20T09:53:24.739Z,2.13
2022-09-20T09:55:59.151Z,6.40
2022-09-20T09:58:41.579Z,2.40
2022-09-20T10:01:27.210Z,3.33
2022-09-20T10:04:24.582Z,3.25
2022-09-20T10:07:20.986Z,1.42
2022-09-20T10:09:53.852Z,4.55
2022-09-20T10:12:30.358Z,2.53
2022-09-20T10:15:21.229Z,2.42
2022-09-20T10:18:23.535Z,5.32
2022-09-20T10:21:12.675Z,1.42
2022-09-20T10:24:02.435Z,4.10
2022-09-20T10:26:48.125Z,2.25
2022-09-20T10:29:49.816Z,2.30
2022-09-20T10:33:02.887Z,0.98
2022-09-20T10:35:39.050Z,4.53
2022-09-20T10:38:29.539Z,4.00
2022-09-20T10:41:30.420Z,1.30
2022-09-20T10:44:07.190Z,2.50
2022-09-20T10:46:46.301Z,1.63
2022-09-20T10:49:23.582Z,1.42
2022-09-20T10:52:23.358Z,2.17
2022-09-20T10:55:06.219Z,2.53
2022-09-20T10:58:10.206Z,1.05
2022-09-20T11:00:48.278Z,1.10
2022-09-20T11:03:43.184Z,1.00
2022-09-20T11:06:40.388Z,0.82
2022-09-20T11:09:14.006Z,3.03
2022-09-20T11:11:49.417Z,1.20
2022-09-20T11:14:31.727Z,3.42
2022-09-20T11:17:14.518Z,1.45
2022-09-20T11:19:56.476Z,1.67
2022-09-20T11:22:32.414Z,0.75
2022-09-20T11:25:29.371Z,2.55
2022-09-20T11:28:20.639Z,1.58
2022-09-20T11:31:06.427Z,1.73
2022-09-20T11:33:52.837Z,1.13
2022-09-20T11:36:26.987Z,1.85
2022-09-20T11:38:57.637Z,1.25
2022-09-20T11:41:30.085Z,1.70
2022-09-20T11:44:04.247Z,2.15
2022-09-20T11:46:37.217Z,1.70
2022-09-20T11:49:16.084Z,2.85
2022-09-20T11:52:14.055Z,4.00
2022-09-20T11:55:05.688Z,3.10
2022-09-20T11:57:34.757Z,1.15
2022-09-20T12:00:05.060Z,1.90
2022-09-20T12:02:49.088Z,2.10
2022-09-20T12:05:41.372Z,1.83
2022-09-20T12:08:33.900Z,4.18
2022-09-20T12:11:10.638Z,2.38
2022-09-20T12:13:40.374Z,1.25
2022-09-20T12:16:15.690Z,0.85
2022-09-20T12:18:53.916Z,1.63
2022-09-20T12:21:22.312Z,1.30
2022-09-20T12:23:52.494Z,3.58
2022-09-20T12:26:21.505Z,4.30
2022-09-20T12:28:49.872Z,1.10
2022-09-20T12:31:26.024Z,2.38
2022-09-20T12:34:01.883Z,1.00
2022-09-20T12:36:36.306Z,2.55
2022-09-20T12:39:03.782Z,1.45
2022-09-20T12:41:51.514Z,1.52
2022-09-20T12:44:40.205Z,3.78
2022-09-20T12:47:10.637Z,1.58
2022-09-20T12:49:56.834Z,2.85
2022-09-20T12:52:52.124Z,2.38
2022-09-20T12:55:33.575Z,2.25
2022-09-20T12:58:12.254Z,1.48
2022-09-20T13:00:47.079Z,1.10
2022-09-20T13:03:21.568Z,0.90
2022-09-20T13:06:11.195Z,2.17
2022-09-20T13:08:50.592Z,2.72
2022-09-20T13:11:23.384Z,4.00
2022-09-20T13:14:03.283Z,1.42
2022-09-20T13:16:49.275Z,1.35
2022-09-20T13:19:31.640Z,1.85
2022-09-20T13:22:34.575Z,2.00
2022-09-20T13:25:05.042Z,1.33
2022-09-20T13:28:01.183Z,1.65
2022-09-20T13:30:33.591Z,2.92
2022-09-20T13:33:20.367Z,3.38
2022-09-20T13:35:51.394Z,1.40
2022-09-20T13:38:24.954Z,1.50
2022-09-20T13:41:00.510Z,1.17
2022-09-20T13:43:32.113Z,0.77
2022-09-20T13:46:06.842Z,0.80
2022-09-20T13:48:34.591Z,0.60
2022-09-20T13:51:02.482Z,1.33
2022-09-20T13:53:41.544Z,4.13
2022-09-20T13:56:21.623Z,1.50
2022-09-20T13:58:50.940Z,2.45
2022-09-20T14:01:34.270Z,0.80
2022-09-20T14:04:13.287Z,1.63
2022-09-20T14:06:42.340Z,4.20
2022-09-20T14:09:31.414Z,1.45
2022-09-20T14:11:59.843Z,0.93
2022-09-20T14:14:28.792Z,1.00
2022-09-20T14:16:58.028Z,1.75
2022-09-20T14:19:37.050Z,1.00
2022-09-20T14:22:06.267Z,3.17
2022-09-20T14:24:36.566Z,3.72
2022-09-20T14:27:20.296Z,1.98
2022-09-20T14:29:55.142Z,1.20
2022-09-20T14:32:38.369Z,2.60
2022-09-20T14:35:19.032Z,1.42
2022-09-20T14:37:50.811Z,1.40
2022-09-20T14:40:30.493Z,0.52
2022-09-20T14:43:03.439Z,0.68
2022-09-20T14:45:33.964Z,0.70
2022-09-20T14:48:09.364Z,0.82
2022-09-20T14:50:38.199Z,3.22
2022-09-20T14:53:26.528Z,0.73
2022-09-20T14:56:11.485Z,0.68
2022-09-20T14:59:05.468Z,0.85
2022-09-20T15:01:34.770Z,0.82
2022-09-20T15:04:10.435Z,0.93
2022-09-20T15:06:39.947Z,1.25
2022-09-20T15:09:12.127Z,2.08
2022-09-20T15:11:40.757Z,2.95
2022-09-20T15:14:08.331Z,1.10
2022-09-20T15:16:36.143Z,1.55
2022-09-20T15:19:05.792Z,0.77
2022-09-20T15:21:33.593Z,1.52
2022-09-20T15:24:01.272Z,0.85
2022-09-20T15:26:29.284Z,0.73
2022-09-20T15:28:56.887Z,1.27
2022-09-20T15:31:24.320Z,1.20
2022-09-20T15:33:51.958Z,0.65
2022-09-20T15:36:19.515Z,1.00
2022-09-20T15:38:47.112Z,0.70
2022-09-20T15:41:14.559Z,1.17
2022-09-20T15:43:43.195Z,0.52
2022-09-20T15:46:22.067Z,0.85
2022-09-20T15:48:49.935Z,0.98
2022-09-20T15:51:17.467Z,0.70
2022-09-20T15:53:54.270Z,1.00
2022-09-20T15:56:24.275Z,0.95
2022-09-20T15:59:04.167Z,2.97
2022-09-20T16:01:33.155Z,0.55
2022-09-20T16:04:06.370Z,1.50
2022-09-20T16:06:34.201Z,1.00
2022-09-20T16:09:01.933Z,0.82
2022-09-20T16:11:29.853Z,0.73
2022-09-20T16:13:59.113Z,1.17
2022-09-20T16:16:28.943Z,2.42
2022-09-20T16:19:15.916Z,1.42
2022-09-20T16:21:52.494Z,0.82
2022-09-20T16:24:24.614Z,1.27
2022-09-20T16:26:52.076Z,2.15
2022-09-20T16:29:22.024Z,0.60
2022-09-20T16:31:50.566Z,0.95
2022-09-20T16:34:20.831Z,1.23
2022-09-20T16:36:53.768Z,1.65
2022-09-20T16:39:29.092Z,1.80
2022-09-20T16:42:04.874Z,1.48
2022-09-20T16:44:34.473Z,1.33
2022-09-20T16:47:03.238Z,3.03
2022-09-20T16:49:30.622Z,1.23
2022-09-20T16:51:58.067Z,0.77
2022-09-20T16:54:28.529Z,4.65
2022-09-20T16:56:59.287Z,0.90
2022-09-20T16:59:26.887Z,1.00
2022-09-20T17:01:55.025Z,1.48
2022-09-20T17:04:22.573Z,1.42
2022-09-20T17:06:51.984Z,0.80
2022-09-20T17:09:19.783Z,1.15
2022-09-20T17:11:50.098Z,1.10
2022-09-20T17:14:21.015Z,0.93
2022-09-20T17:16:49.525Z,1.58
2022-09-20T17:19:19.135Z,1.73
2022-09-20T17:21:51.679Z,1.77
2022-09-20T17:24:20.870Z,1.45
2022-09-20T17:26:50.148Z,1.35
2022-09-20T17:29:18.991Z,0.95
2022-09-20T17:31:54.398Z,0.98
2022-09-20T17:34:23.763Z,1.45
2022-09-20T17:36:51.299Z,1.20
2022-09-20T17:39:18.765Z,0.93
2022-09-20T17:41:48.479Z,2.67
2022-09-20T17:44:16.724Z,1.33
2022-09-20T17:46:46.617Z,0.80
2022-09-20T17:49:16.564Z,1.23
2022-09-20T17:51:46.650Z,1.10
2022-09-20T17:54:14.338Z,1.98
2022-09-20T17:56:43.835Z,1.95
2022-09-20T17:59:12.368Z,3.92
2022-09-20T18:01:40.512Z,2.40
2022-09-20T18:04:09.542Z,2.78
2022-09-20T18:06:38.384Z,2.45
2022-09-20T18:09:08.174Z,2.03
2022-09-20T18:11:48.949Z,4.80
2022-09-20T18:14:23.224Z,2.58
2022-09-20T18:16:53.039Z,1.65
2022-09-20T18:19:22.449Z,1.08
2022-09-20T18:21:50.145Z,1.30
2022-09-20T18:24:17.698Z,2.35
2022-09-20T18:26:45.210Z,2.38
2022-09-20T18:29:16.583Z,3.03
2022-09-20T18:31:45.127Z,2.43
2022-09-20T18:34:18.402Z,2.70
2022-09-20T18:36:52.992Z,3.20
2022-09-20T18:39:28.947Z,5.05
2022-09-20T18:41:56.471Z,2.50
2022-09-20T18:44:26.060Z,2.50
2022-09-20T18:46:54.875Z,2.95
2022-09-20T18:49:22.531Z,2.43
2022-09-20T18:51:50.274Z,2.43
2022-09-20T18:54:18.990Z,2.20
2022-09-20T18:56:48.803Z,1.65
2022-09-20T18:59:23.107Z,1.47
2022-09-20T19:02:05.551Z,2.83
2022-09-20T19:05:00.102Z,3.37
2022-09-20T19:07:27.535Z,2.17
2022-09-20T19:10:06.222Z,2.47
2022-09-20T19:12:51.651Z,5.30
2022-09-20T19:15:41.036Z,3.00
2022-09-20T19:18:35.729Z,2.10
2022-09-20T19:21:20.883Z,2.50
2022-09-20T19:24:39.422Z,2.20
2022-09-20T19:27:11.140Z,4.67
2022-09-20T19:29:39.366Z,2.17
2022-09-20T19:32:16.907Z,1.93
2022-09-20T19:34:45.349Z,3.30
2022-09-20T19:37:30.336Z,2.27
2022-09-20T19:40:00.607Z,2.10
2022-09-20T19:42:42.387Z,2.67
2022-09-20T19:45:37.141Z,3.10
2022-09-20T19:48:16.540Z,4.20
2022-09-20T19:50:47.123Z,3.93
2022-09-20T19:53:17.247Z,4.93
2022-09-20T19:55:47.963Z,5.80
2022-09-20T19:58:15.932Z,3.63
2022-09-20T20:00:44.943Z,4.17
2022-09-20T20:03:14.276Z,5.00
2022-09-20T20:06:08.307Z,7.93
2022-09-20T20:08:50.711Z,5.43
2022-09-20T20:11:39.355Z,3.93
2022-09-20T20:14:28.616Z,3.60
2022-09-20T20:17:23.608Z,3.00
2022-09-20T20:20:19.587Z,2.20
2022-09-20T20:23:07.291Z,2.23
2022-09-20T20:25:40.554Z,2.83
2022-09-20T20:28:09.341Z,2.73
2022-09-20T20:30:36.976Z,2.90
2022-09-20T20:33:05.868Z,4.57
2022-09-20T20:35:33.196Z,3.23
2022-09-20T20:38:00.603Z,3.97
2022-09-20T20:40:28.476Z,4.17
2022-09-20T20:43:01.917Z,4.53
2022-09-20T20:45:32.220Z,4.87
2022-09-20T20:47:59.502Z,6.03
2022-09-20T20:50:27.951Z,4.20
2022-09-20T20:52:57.125Z,3.37
2022-09-20T20:55:24.908Z,2.77
2022-09-20T20:57:59.491Z,2.87
2022-09-20T21:00:29.150Z,2.20
2022-09-20T21:03:01.477Z,2.27
2022-09-20T21:05:29.926Z,2.40
2022-09-20T21:07:58.574Z,1.67
2022-09-20T21:10:26.886Z,2.43
2022-09-20T21:12:54.955Z,1.60
2022-09-20T21:15:22.535Z,1.90
2022-09-20T21:17:54.018Z,1.40
2022-09-20T21:20:22.345Z,1.67
2022-09-20T21:22:49.859Z,2.07
2022-09-20T21:25:17.067Z,1.33
2022-09-20T21:27:45.666Z,1.87
2022-09-20T21:30:13.164Z,2.10
2022-09-20T21:32:40.731Z,2.33
2022-09-20T21:35:08.728Z,2.77
2022-09-20T21:37:36.291Z,2.20
2022-09-20T21:40:03.933Z,3.77
2022-09-20T21:42:31.439Z,1.80
2022-09-20T21:44:58.652Z,2.60
2022-09-20T21:47:26.284Z,2.37
2022-09-20T21:49:53.559Z,2.30
2022-09-20T21:52:21.076Z,2.43
2022-09-20T21:54:48.830Z,3.17
2022-09-20T21:57:16.280Z,5.83
2022-09-20T21:59:43.703Z,2.67
2022-09-20T22:02:11.144Z,2.77
2022-09-20T22:04:38.499Z,2.27
2022-09-20T22:07:05.821Z,1.80
2022-09-20T22:09:33.154Z,2.20
2022-09-20T22:12:00.892Z,2.03
2022-09-20T22:14:28.170Z,1.57
2022-09-20T22:16:55.532Z,1.80
2022-09-20T22:19:22.846Z,1.40
2022-09-20T22:21:51.386Z,2.17
2022-09-20T22:24:18.920Z,2.77
2022-09-20T22:26:48.507Z,2.63
2022-09-20T22:29:16.827Z,1.70
2022-09-20T22:31:46.125Z,2.37
2022-09-20T22:34:15.757Z,2.10
2022-09-20T22:36:43.762Z,3.53
2022-09-20T22:39:12.397Z,1.67
2022-09-20T22:41:41.353Z,1.60
2022-09-20T22:44:09.335Z,2.93
2022-09-20T22:46:38.187Z,3.13
2022-09-20T22:49:06.672Z,1.80
2022-09-20T22:51:34.379Z,3.43
2022-09-20T22:54:06.897Z,4.03
2022-09-20T22:56:35.165Z,5.43
2022-09-20T22:59:13.735Z,5.63
2022-09-20T23:01:46.331Z,12.87
2022-09-20T23:04:16.404Z,13.63
2022-09-20T23:06:51.774Z,12.40
2022-09-20T23:09:19.947Z,16.60
2022-09-20T23:11:47.885Z,17.27
2022-09-20T23:14:18.189Z,14.47
2022-09-20T23:16:46.500Z,13.93
2022-09-20T23:19:14.548Z,13.90
2022-09-20T23:21:43.451Z,11.40
2022-09-20T23:24:12.804Z,17.83
2022-09-20T23:26:41.666Z,13.93
2022-09-20T23:29:11.912Z,8.50
2022-09-20T23:31:41.727Z,21.83
2022-09-20T23:34:09.694Z,13.63
2022-09-20T23:36:39.069Z,12.97
2022-09-20T23:39:08.091Z,4.33
2022-09-20T23:41:36.768Z,11.83
2022-09-20T23:44:09.611Z,15.60
2022-09-20T23:46:38.280Z,6.13
2022-09-20T23:49:06.602Z,18.57
2022-09-20T23:51:35.556Z,12.53
2022-09-20T23:54:03.925Z,12.53
2022-09-20T23:56:31.952Z,18.80
2022-09-20T23:58:59.227Z,8.70
